sensor_id;sensor_type;location;lat;lon;timestamp;temperature;humidity
64937;SHT30;51452;47.698;19.050;2023-06-14T00:02:06;16.05;66.61
64937;SHT30;51452;47.698;19.050;2023-06-14T00:04:34;16.04;67.01
64937;SHT30;51452;47.698;19.050;2023-06-14T00:07:00;16.02;66.89
64937;SHT30;51452;47.698;19.050;2023-06-14T00:09:25;16.01;66.73
64937;SHT30;51452;47.698;19.050;2023-06-14T00:11:51;15.95;66.87
64937;SHT30;51452;47.698;19.050;2023-06-14T00:14:16;16.02;66.75
64937;SHT30;51452;47.698;19.050;2023-06-14T00:16:41;16.01;66.87
64937;SHT30;51452;47.698;19.050;2023-06-14T00:19:08;15.95;66.95
64937;SHT30;51452;47.698;19.050;2023-06-14T00:21:36;15.98;67.12
64937;SHT30;51452;47.698;19.050;2023-06-14T00:24:01;15.93;67.18
64937;SHT30;51452;47.698;19.050;2023-06-14T00:26:27;15.88;67.34
64937;SHT30;51452;47.698;19.050;2023-06-14T00:28:53;15.84;67.53
64937;SHT30;51452;47.698;19.050;2023-06-14T00:31:19;15.87;67.41
64937;SHT30;51452;47.698;19.050;2023-06-14T00:33:44;15.84;67.40
64937;SHT30;51452;47.698;19.050;2023-06-14T00:36:10;15.85;67.60
64937;SHT30;51452;47.698;19.050;2023-06-14T00:38:35;15.83;67.53
64937;SHT30;51452;47.698;19.050;2023-06-14T00:41:00;15.80;67.67
64937;SHT30;51452;47.698;19.050;2023-06-14T00:43:26;15.74;67.76
64937;SHT30;51452;47.698;19.050;2023-06-14T00:45:51;15.70;68.08
64937;SHT30;51452;47.698;19.050;2023-06-14T00:48:17;15.70;67.97
64937;SHT30;51452;47.698;19.050;2023-06-14T00:50:44;15.63;67.99
64937;SHT30;51452;47.698;19.050;2023-06-14T00:53:12;15.44;68.53
64937;SHT30;51452;47.698;19.050;2023-06-14T00:55:37;15.49;68.51
64937;SHT30;51452;47.698;19.050;2023-06-14T00:58:03;15.46;68.47
64937;SHT30;51452;47.698;19.050;2023-06-14T01:00:28;15.25;69.38
64937;SHT30;51452;47.698;19.050;2023-06-14T01:02:54;15.23;69.29
64937;SHT30;51452;47.698;19.050;2023-06-14T01:05:20;15.27;68.99
64937;SHT30;51452;47.698;19.050;2023-06-14T01:08:11;15.25;69.16
64937;SHT30;51452;47.698;19.050;2023-06-14T01:10:46;15.09;69.93
64937;SHT30;51452;47.698;19.050;2023-06-14T01:13:37;15.12;70.05
64937;SHT30;51452;47.698;19.050;2023-06-14T01:16:04;15.00;70.45
64937;SHT30;51452;47.698;19.050;2023-06-14T01:18:30;14.85;70.81
64937;SHT30;51452;47.698;19.050;2023-06-14T01:20:57;14.89;70.94
64937;SHT30;51452;47.698;19.050;2023-06-14T01:23:23;14.98;70.73
64937;SHT30;51452;47.698;19.050;2023-06-14T01:25:50;15.07;70.49
64937;SHT30;51452;47.698;19.050;2023-06-14T01:28:20;14.98;70.72
64937;SHT30;51452;47.698;19.050;2023-06-14T01:30:54;15.06;70.41
64937;SHT30;51452;47.698;19.050;2023-06-14T01:33:26;14.96;70.67
64937;SHT30;51452;47.698;19.050;2023-06-14T01:35:53;15.02;70.73
64937;SHT30;51452;47.698;19.050;2023-06-14T01:38:22;14.99;70.83
64937;SHT30;51452;47.698;19.050;2023-06-14T01:40:49;14.71;71.84
64937;SHT30;51452;47.698;19.050;2023-06-14T01:43:16;14.86;71.40
64937;SHT30;51452;47.698;19.050;2023-06-14T01:45:44;14.91;71.28
64937;SHT30;51452;47.698;19.050;2023-06-14T01:48:11;14.95;71.06
64937;SHT30;51452;47.698;19.050;2023-06-14T01:50:36;14.98;70.91
64937;SHT30;51452;47.698;19.050;2023-06-14T01:53:02;15.00;70.67
64937;SHT30;51452;47.698;19.050;2023-06-14T01:55:27;15.05;70.49
64937;SHT30;51452;47.698;19.050;2023-06-14T01:57:53;14.99;70.87
64937;SHT30;51452;47.698;19.050;2023-06-14T02:00:20;14.93;70.97
64937;SHT30;51452;47.698;19.050;2023-06-14T02:02:46;14.84;70.52
64937;SHT30;51452;47.698;19.050;2023-06-14T02:05:12;14.89;70.24
64937;SHT30;51452;47.698;19.050;2023-06-14T02:07:37;14.72;70.08
64937;SHT30;51452;47.698;19.050;2023-06-14T02:10:05;14.63;69.95
64937;SHT30;51452;47.698;19.050;2023-06-14T02:12:31;14.61;69.59
64937;SHT30;51452;47.698;19.050;2023-06-14T02:14:56;14.51;69.90
64937;SHT30;51452;47.698;19.050;2023-06-14T02:17:23;14.55;70.08
64937;SHT30;51452;47.698;19.050;2023-06-14T02:19:48;14.57;70.38
64937;SHT30;51452;47.698;19.050;2023-06-14T02:22:14;14.58;70.42
64937;SHT30;51452;47.698;19.050;2023-06-14T02:24:41;14.52;71.02
64937;SHT30;51452;47.698;19.050;2023-06-14T02:27:08;14.57;71.10
64937;SHT30;51452;47.698;19.050;2023-06-14T02:29:35;14.63;70.93
64937;SHT30;51452;47.698;19.050;2023-06-14T02:32:01;14.64;70.65
64937;SHT30;51452;47.698;19.050;2023-06-14T02:34:26;14.65;70.93
64937;SHT30;51452;47.698;19.050;2023-06-14T02:36:52;14.68;71.13
64937;SHT30;51452;47.698;19.050;2023-06-14T02:39:18;14.68;71.23
64937;SHT30;51452;47.698;19.050;2023-06-14T02:41:46;14.68;70.68
64937;SHT30;51452;47.698;19.050;2023-06-14T02:44:13;14.71;70.50
64937;SHT30;51452;47.698;19.050;2023-06-14T02:46:39;14.71;70.48
64937;SHT30;51452;47.698;19.050;2023-06-14T02:49:04;14.68;70.14
64937;SHT30;51452;47.698;19.050;2023-06-14T02:51:30;14.65;70.58
64937;SHT30;51452;47.698;19.050;2023-06-14T02:53:55;14.68;70.83
64937;SHT30;51452;47.698;19.050;2023-06-14T02:56:20;14.69;70.52
64937;SHT30;51452;47.698;19.050;2023-06-14T02:58:47;14.68;70.62
64937;SHT30;51452;47.698;19.050;2023-06-14T03:01:13;14.67;70.79
64937;SHT30;51452;47.698;19.050;2023-06-14T03:03:40;14.65;70.68
64937;SHT30;51452;47.698;19.050;2023-06-14T03:06:05;14.65;70.58
64937;SHT30;51452;47.698;19.050;2023-06-14T03:08:31;14.67;70.72
64937;SHT30;51452;47.698;19.050;2023-06-14T03:11:03;14.65;70.82
64937;SHT30;51452;47.698;19.050;2023-06-14T03:13:30;14.67;70.57
64937;SHT30;51452;47.698;19.050;2023-06-14T03:15:57;14.65;70.69
64937;SHT30;51452;47.698;19.050;2023-06-14T03:18:23;14.67;70.70
64937;SHT30;51452;47.698;19.050;2023-06-14T03:20:50;14.64;71.01
64937;SHT30;51452;47.698;19.050;2023-06-14T03:23:16;14.64;71.46
64937;SHT30;51452;47.698;19.050;2023-06-14T03:25:42;14.61;71.13
64937;SHT30;51452;47.698;19.050;2023-06-14T03:28:08;14.64;70.91
64937;SHT30;51452;47.698;19.050;2023-06-14T03:30:33;14.60;71.29
64937;SHT30;51452;47.698;19.050;2023-06-14T03:32:59;14.55;71.98
64937;SHT30;51452;47.698;19.050;2023-06-14T03:35:26;14.57;72.12
64937;SHT30;51452;47.698;19.050;2023-06-14T03:37:52;14.60;71.89
64937;SHT30;51452;47.698;19.050;2023-06-14T03:40:18;14.60;71.89
64937;SHT30;51452;47.698;19.050;2023-06-14T03:42:45;14.58;71.82
64937;SHT30;51452;47.698;19.050;2023-06-14T03:45:10;14.60;71.80
64937;SHT30;51452;47.698;19.050;2023-06-14T03:47:36;14.63;71.80
64937;SHT30;51452;47.698;19.050;2023-06-14T03:50:04;14.67;71.90
64937;SHT30;51452;47.698;19.050;2023-06-14T03:52:30;14.72;71.95
64937;SHT30;51452;47.698;19.050;2023-06-14T03:54:56;14.76;72.07
64937;SHT30;51452;47.698;19.050;2023-06-14T03:57:23;14.79;72.16
64937;SHT30;51452;47.698;19.050;2023-06-14T03:59:48;14.79;72.81
64937;SHT30;51452;47.698;19.050;2023-06-14T04:02:13;14.85;72.95
64937;SHT30;51452;47.698;19.050;2023-06-14T04:04:43;14.95;72.42
64937;SHT30;51452;47.698;19.050;2023-06-14T04:07:16;14.93;72.65
64937;SHT30;51452;47.698;19.050;2023-06-14T04:09:44;15.00;72.77
64937;SHT30;51452;47.698;19.050;2023-06-14T04:12:10;15.09;72.76
64937;SHT30;51452;47.698;19.050;2023-06-14T04:14:36;15.16;72.64
64937;SHT30;51452;47.698;19.050;2023-06-14T04:17:02;15.26;72.63
64937;SHT30;51452;47.698;19.050;2023-06-14T04:19:27;15.32;72.27
64937;SHT30;51452;47.698;19.050;2023-06-14T04:21:53;15.42;72.51
64937;SHT30;51452;47.698;19.050;2023-06-14T04:24:18;15.53;72.26
64937;SHT30;51452;47.698;19.050;2023-06-14T04:26:44;15.50;72.01
64937;SHT30;51452;47.698;19.050;2023-06-14T04:29:11;15.57;71.82
64937;SHT30;51452;47.698;19.050;2023-06-14T04:31:40;15.73;70.95
64937;SHT30;51452;47.698;19.050;2023-06-14T04:34:05;15.74;70.38
64937;SHT30;51452;47.698;19.050;2023-06-14T04:36:34;15.80;70.50
64937;SHT30;51452;47.698;19.050;2023-06-14T04:39:04;15.80;70.74
64937;SHT30;51452;47.698;19.050;2023-06-14T04:41:31;15.85;70.69
64937;SHT30;51452;47.698;19.050;2023-06-14T04:44:00;15.93;70.35
64937;SHT30;51452;47.698;19.050;2023-06-14T04:46:27;15.98;69.32
64937;SHT30;51452;47.698;19.050;2023-06-14T04:48:54;16.05;69.59
64937;SHT30;51452;47.698;19.050;2023-06-14T04:51:20;16.06;69.48
64937;SHT30;51452;47.698;19.050;2023-06-14T04:53:47;16.18;68.85
64937;SHT30;51452;47.698;19.050;2023-06-14T04:56:15;16.19;68.32
64937;SHT30;51452;47.698;19.050;2023-06-14T04:58:41;16.28;68.21
64937;SHT30;51452;47.698;19.050;2023-06-14T05:01:07;16.26;69.33
64937;SHT30;51452;47.698;19.050;2023-06-14T05:03:34;16.32;68.27
64937;SHT30;51452;47.698;19.050;2023-06-14T05:05:59;16.35;68.36
64937;SHT30;51452;47.698;19.050;2023-06-14T05:08:25;16.38;68.52
64937;SHT30;51452;47.698;19.050;2023-06-14T05:14:35;16.48;67.81
64937;SHT30;51452;47.698;19.050;2023-06-14T05:17:23;16.51;66.57
64937;SHT30;51452;47.698;19.050;2023-06-14T05:19:49;16.65;66.27
64937;SHT30;51452;47.698;19.050;2023-06-14T05:22:14;16.75;66.18
64937;SHT30;51452;47.698;19.050;2023-06-14T05:24:40;16.81;66.88
64937;SHT30;51452;47.698;19.050;2023-06-14T05:27:06;16.91;66.85
64937;SHT30;51452;47.698;19.050;2023-06-14T05:29:32;17.03;66.39
64937;SHT30;51452;47.698;19.050;2023-06-14T05:31:57;17.03;66.17
64937;SHT30;51452;47.698;19.050;2023-06-14T05:34:23;17.13;65.38
64937;SHT30;51452;47.698;19.050;2023-06-14T05:36:50;17.11;65.92
64937;SHT30;51452;47.698;19.050;2023-06-14T05:39:16;17.14;66.48
64937;SHT30;51452;47.698;19.050;2023-06-14T05:41:42;17.02;66.09
64937;SHT30;51452;47.698;19.050;2023-06-14T05:44:08;17.03;66.14
64937;SHT30;51452;47.698;19.050;2023-06-14T05:46:34;17.04;65.85
64937;SHT30;51452;47.698;19.050;2023-06-14T05:48:59;17.07;65.14
64937;SHT30;51452;47.698;19.050;2023-06-14T05:51:24;17.06;67.32
64937;SHT30;51452;47.698;19.050;2023-06-14T05:53:50;17.23;66.57
64937;SHT30;51452;47.698;19.050;2023-06-14T05:56:16;17.23;66.36
64937;SHT30;51452;47.698;19.050;2023-06-14T05:58:43;17.23;67.19
64937;SHT30;51452;47.698;19.050;2023-06-14T06:01:09;17.15;66.68
64937;SHT30;51452;47.698;19.050;2023-06-14T06:03:34;17.25;67.44
64937;SHT30;51452;47.698;19.050;2023-06-14T06:05:59;17.25;67.34
64937;SHT30;51452;47.698;19.050;2023-06-14T06:08:26;17.21;66.68
64937;SHT30;51452;47.698;19.050;2023-06-14T06:10:52;17.32;66.75
64937;SHT30;51452;47.698;19.050;2023-06-14T06:13:17;17.27;66.94
64937;SHT30;51452;47.698;19.050;2023-06-14T06:15:42;17.34;66.02
64937;SHT30;51452;47.698;19.050;2023-06-14T06:18:08;17.39;65.62
64937;SHT30;51452;47.698;19.050;2023-06-14T06:20:33;17.51;65.62
64937;SHT30;51452;47.698;19.050;2023-06-14T06:22:59;17.52;66.13
64937;SHT30;51452;47.698;19.050;2023-06-14T06:25:25;17.58;66.13
64937;SHT30;51452;47.698;19.050;2023-06-14T06:27:52;17.58;65.80
64937;SHT30;51452;47.698;19.050;2023-06-14T06:30:18;17.62;66.01
64937;SHT30;51452;47.698;19.050;2023-06-14T06:32:43;17.74;65.65
64937;SHT30;51452;47.698;19.050;2023-06-14T06:35:09;17.76;65.90
64937;SHT30;51452;47.698;19.050;2023-06-14T06:37:36;17.90;66.56
64937;SHT30;51452;47.698;19.050;2023-06-14T06:40:02;18.09;65.36
64937;SHT30;51452;47.698;19.050;2023-06-14T06:42:31;18.22;64.11
64937;SHT30;51452;47.698;19.050;2023-06-14T06:44:56;18.18;65.19
64937;SHT30;51452;47.698;19.050;2023-06-14T06:47:22;18.22;65.10
64937;SHT30;51452;47.698;19.050;2023-06-14T06:49:47;18.23;65.40
64937;SHT30;51452;47.698;19.050;2023-06-14T06:52:13;18.09;64.54
64937;SHT30;51452;47.698;19.050;2023-06-14T06:54:38;18.07;64.92
64937;SHT30;51452;47.698;19.050;2023-06-14T06:57:04;17.95;65.96
64937;SHT30;51452;47.698;19.050;2023-06-14T06:59:31;17.92;65.64
64937;SHT30;51452;47.698;19.050;2023-06-14T07:01:56;17.90;66.02
64937;SHT30;51452;47.698;19.050;2023-06-14T07:04:21;17.89;66.05
64937;SHT30;51452;47.698;19.050;2023-06-14T07:06:47;17.90;66.74
64937;SHT30;51452;47.698;19.050;2023-06-14T07:09:12;18.03;66.42
64937;SHT30;51452;47.698;19.050;2023-06-14T07:11:39;18.18;66.78
64937;SHT30;51452;47.698;19.050;2023-06-14T07:14:05;18.26;65.24
64937;SHT30;51452;47.698;19.050;2023-06-14T07:16:30;18.40;65.21
64937;SHT30;51452;47.698;19.050;2023-06-14T07:18:56;18.44;65.44
64937;SHT30;51452;47.698;19.050;2023-06-14T07:21:21;18.44;64.27
64937;SHT30;51452;47.698;19.050;2023-06-14T07:23:47;18.53;64.77
64937;SHT30;51452;47.698;19.050;2023-06-14T07:26:12;18.51;63.78
64937;SHT30;51452;47.698;19.050;2023-06-14T07:28:37;18.69;64.13
64937;SHT30;51452;47.698;19.050;2023-06-14T07:31:03;18.89;64.48
64937;SHT30;51452;47.698;19.050;2023-06-14T07:33:29;18.94;64.23
64937;SHT30;51452;47.698;19.050;2023-06-14T07:35:54;19.27;64.79
64937;SHT30;51452;47.698;19.050;2023-06-14T07:38:20;19.42;61.24
64937;SHT30;51452;47.698;19.050;2023-06-14T07:40:45;19.50;62.49
64937;SHT30;51452;47.698;19.050;2023-06-14T07:43:11;19.63;63.33
64937;SHT30;51452;47.698;19.050;2023-06-14T07:45:37;19.78;62.78
64937;SHT30;51452;47.698;19.050;2023-06-14T07:48:02;19.83;61.22
64937;SHT30;51452;47.698;19.050;2023-06-14T07:50:28;19.83;62.74
64937;SHT30;51452;47.698;19.050;2023-06-14T07:52:54;19.83;62.01
64937;SHT30;51452;47.698;19.050;2023-06-14T07:55:19;19.81;62.39
64937;SHT30;51452;47.698;19.050;2023-06-14T07:57:45;19.94;62.03
64937;SHT30;51452;47.698;19.050;2023-06-14T08:00:11;19.90;61.62
64937;SHT30;51452;47.698;19.050;2023-06-14T08:02:44;19.88;61.98
64937;SHT30;51452;47.698;19.050;2023-06-14T08:05:10;20.00;61.62
64937;SHT30;51452;47.698;19.050;2023-06-14T08:07:39;19.91;61.85
64937;SHT30;51452;47.698;19.050;2023-06-14T08:10:08;20.00;61.25
64937;SHT30;51452;47.698;19.050;2023-06-14T08:12:33;20.14;60.93
64937;SHT30;51452;47.698;19.050;2023-06-14T08:15:00;20.18;61.63
64937;SHT30;51452;47.698;19.050;2023-06-14T08:17:26;20.22;61.94
64937;SHT30;51452;47.698;19.050;2023-06-14T08:19:52;20.28;61.53
64937;SHT30;51452;47.698;19.050;2023-06-14T08:22:20;20.49;60.44
64937;SHT30;51452;47.698;19.050;2023-06-14T08:24:47;20.55;61.11
64937;SHT30;51452;47.698;19.050;2023-06-14T08:27:13;20.59;60.68
64937;SHT30;51452;47.698;19.050;2023-06-14T08:29:38;20.51;60.99
64937;SHT30;51452;47.698;19.050;2023-06-14T08:32:06;20.56;60.53
64937;SHT30;51452;47.698;19.050;2023-06-14T08:34:31;20.53;59.99
64937;SHT30;51452;47.698;19.050;2023-06-14T08:36:57;20.58;61.00
64937;SHT30;51452;47.698;19.050;2023-06-14T08:39:22;20.61;60.76
64937;SHT30;51452;47.698;19.050;2023-06-14T08:41:52;20.48;61.72
64937;SHT30;51452;47.698;19.050;2023-06-14T08:44:17;20.52;62.10
64937;SHT30;51452;47.698;19.050;2023-06-14T08:46:43;20.42;60.62
64937;SHT30;51452;47.698;19.050;2023-06-14T08:49:11;20.52;61.38
64937;SHT30;51452;47.698;19.050;2023-06-14T08:51:38;20.62;60.60
64937;SHT30;51452;47.698;19.050;2023-06-14T08:54:03;20.65;56.88
64937;SHT30;51452;47.698;19.050;2023-06-14T08:56:30;20.69;60.18
64937;SHT30;51452;47.698;19.050;2023-06-14T08:58:58;20.59;59.19
64937;SHT30;51452;47.698;19.050;2023-06-14T09:01:26;20.79;62.25
64937;SHT30;51452;47.698;19.050;2023-06-14T09:03:52;20.89;61.23
64937;SHT30;51452;47.698;19.050;2023-06-14T09:06:20;20.82;60.92
64937;SHT30;51452;47.698;19.050;2023-06-14T09:08:48;20.87;60.65
64937;SHT30;51452;47.698;19.050;2023-06-14T09:11:17;20.79;61.08
64937;SHT30;51452;47.698;19.050;2023-06-14T09:13:45;20.69;59.45
64937;SHT30;51452;47.698;19.050;2023-06-14T09:16:11;20.71;58.80
64937;SHT30;51452;47.698;19.050;2023-06-14T09:18:44;20.64;59.60
64937;SHT30;51452;47.698;19.050;2023-06-14T09:21:13;20.76;60.67
64937;SHT30;51452;47.698;19.050;2023-06-14T09:23:42;21.08;60.50
64937;SHT30;51452;47.698;19.050;2023-06-14T09:26:08;21.28;60.96
64937;SHT30;51452;47.698;19.050;2023-06-14T09:28:35;21.58;56.34
64937;SHT30;51452;47.698;19.050;2023-06-14T09:31:01;21.73;57.35
64937;SHT30;51452;47.698;19.050;2023-06-14T09:33:26;21.79;55.31
64937;SHT30;51452;47.698;19.050;2023-06-14T09:35:54;21.81;53.84
64937;SHT30;51452;47.698;19.050;2023-06-14T09:38:19;21.77;53.96
64937;SHT30;51452;47.698;19.050;2023-06-14T09:40:45;21.77;54.55
64937;SHT30;51452;47.698;19.050;2023-06-14T09:43:11;21.82;54.59
64937;SHT30;51452;47.698;19.050;2023-06-14T09:45:37;22.02;53.55
64937;SHT30;51452;47.698;19.050;2023-06-14T09:48:06;22.16;53.26
64937;SHT30;51452;47.698;19.050;2023-06-14T09:50:32;22.32;54.94
64937;SHT30;51452;47.698;19.050;2023-06-14T09:53:07;22.30;50.99
64937;SHT30;51452;47.698;19.050;2023-06-14T09:55:36;22.23;50.76
64937;SHT30;51452;47.698;19.050;2023-06-14T09:58:04;22.05;52.23
64937;SHT30;51452;47.698;19.050;2023-06-14T10:00:32;21.89;50.06
64937;SHT30;51452;47.698;19.050;2023-06-14T10:03:02;21.84;48.51
64937;SHT30;51452;47.698;19.050;2023-06-14T10:05:29;21.79;49.77
64937;SHT30;51452;47.698;19.050;2023-06-14T10:08:05;21.73;47.48
64937;SHT30;51452;47.698;19.050;2023-06-14T10:10:33;21.68;52.71
64937;SHT30;51452;47.698;19.050;2023-06-14T10:12:58;21.69;50.40
64937;SHT30;51452;47.698;19.050;2023-06-14T10:15:37;21.59;49.78
64937;SHT30;51452;47.698;19.050;2023-06-14T10:21:05;21.48;51.50
64937;SHT30;51452;47.698;19.050;2023-06-14T10:23:38;21.46;53.07
64937;SHT30;51452;47.698;19.050;2023-06-14T10:26:05;21.44;51.93
64937;SHT30;51452;47.698;19.050;2023-06-14T10:28:31;21.48;53.86
64937;SHT30;51452;47.698;19.050;2023-06-14T10:31:10;21.50;55.27
64937;SHT30;51452;47.698;19.050;2023-06-14T10:33:39;21.53;54.72
64937;SHT30;51452;47.698;19.050;2023-06-14T10:39:04;21.54;55.69
64937;SHT30;51452;47.698;19.050;2023-06-14T10:41:30;21.62;55.86
64937;SHT30;51452;47.698;19.050;2023-06-14T10:46:41;21.68;54.98
64937;SHT30;51452;47.698;19.050;2023-06-14T10:49:10;21.78;54.21
64937;SHT30;51452;47.698;19.050;2023-06-14T10:51:42;21.73;56.23
64937;SHT30;51452;47.698;19.050;2023-06-14T10:54:15;21.82;52.71
64937;SHT30;51452;47.698;19.050;2023-06-14T10:56:47;21.78;51.33
64937;SHT30;51452;47.698;19.050;2023-06-14T10:59:13;21.91;51.34
64937;SHT30;51452;47.698;19.050;2023-06-14T11:04:50;22.05;53.08
64937;SHT30;51452;47.698;19.050;2023-06-14T11:12:50;22.59;51.78
64937;SHT30;51452;47.698;19.050;2023-06-14T11:15:16;22.67;51.61
64937;SHT30;51452;47.698;19.050;2023-06-14T11:17:51;22.90;53.39
64937;SHT30;51452;47.698;19.050;2023-06-14T11:20:18;22.98;51.62
64937;SHT30;51452;47.698;19.050;2023-06-14T11:22:45;23.00;48.72
64937;SHT30;51452;47.698;19.050;2023-06-14T11:25:14;23.03;48.94
64937;SHT30;51452;47.698;19.050;2023-06-14T11:27:43;22.78;47.11
64937;SHT30;51452;47.698;19.050;2023-06-14T11:30:09;22.70;47.77
64937;SHT30;51452;47.698;19.050;2023-06-14T11:32:38;22.88;52.02
64937;SHT30;51452;47.698;19.050;2023-06-14T11:35:05;22.81;49.86
64937;SHT30;51452;47.698;19.050;2023-06-14T11:37:31;22.76;48.80
64937;SHT30;51452;47.698;19.050;2023-06-14T11:40:00;22.67;49.14
64937;SHT30;51452;47.698;19.050;2023-06-14T11:42:28;22.80;47.16
64937;SHT30;51452;47.698;19.050;2023-06-14T11:44:55;22.77;48.60
64937;SHT30;51452;47.698;19.050;2023-06-14T11:47:21;22.90;48.65
64937;SHT30;51452;47.698;19.050;2023-06-14T11:49:47;22.88;47.92
64937;SHT30;51452;47.698;19.050;2023-06-14T11:52:13;22.81;47.53
64937;SHT30;51452;47.698;19.050;2023-06-14T11:54:39;22.80;47.23
64937;SHT30;51452;47.698;19.050;2023-06-14T11:57:07;22.87;51.43
64937;SHT30;51452;47.698;19.050;2023-06-14T11:59:44;22.87;51.29
64937;SHT30;51452;47.698;19.050;2023-06-14T12:02:10;22.96;48.02
64937;SHT30;51452;47.698;19.050;2023-06-14T12:04:41;22.91;45.68
64937;SHT30;51452;47.698;19.050;2023-06-14T12:09:39;23.05;47.17
64937;SHT30;51452;47.698;19.050;2023-06-14T12:12:05;23.01;47.02
64937;SHT30;51452;47.698;19.050;2023-06-14T12:14:31;23.05;43.59
64937;SHT30;51452;47.698;19.050;2023-06-14T12:17:04;23.19;47.47
64937;SHT30;51452;47.698;19.050;2023-06-14T12:19:31;23.28;45.99
64937;SHT30;51452;47.698;19.050;2023-06-14T12:21:59;23.45;43.69
64937;SHT30;51452;47.698;19.050;2023-06-14T12:24:29;23.52;43.81
64937;SHT30;51452;47.698;19.050;2023-06-14T12:26:57;23.52;45.85
64937;SHT30;51452;47.698;19.050;2023-06-14T12:29:24;23.44;44.36
64937;SHT30;51452;47.698;19.050;2023-06-14T12:31:50;23.38;41.73
64937;SHT30;51452;47.698;19.050;2023-06-14T12:34:16;23.49;44.82
64937;SHT30;51452;47.698;19.050;2023-06-14T12:36:41;23.52;45.21
64937;SHT30;51452;47.698;19.050;2023-06-14T12:39:10;23.54;42.09
64937;SHT30;51452;47.698;19.050;2023-06-14T12:41:35;23.56;43.29
64937;SHT30;51452;47.698;19.050;2023-06-14T12:44:02;23.58;43.20
64937;SHT30;51452;47.698;19.050;2023-06-14T12:46:30;23.61;43.62
64937;SHT30;51452;47.698;19.050;2023-06-14T12:48:56;23.61;42.13
64937;SHT30;51452;47.698;19.050;2023-06-14T12:51:21;23.69;42.11
64937;SHT30;51452;47.698;19.050;2023-06-14T12:53:47;23.66;44.47
64937;SHT30;51452;47.698;19.050;2023-06-14T12:56:14;23.73;45.97
64937;SHT30;51452;47.698;19.050;2023-06-14T12:58:39;23.67;44.93
64937;SHT30;51452;47.698;19.050;2023-06-14T13:01:05;23.70;47.00
64937;SHT30;51452;47.698;19.050;2023-06-14T13:03:30;23.67;44.98
64937;SHT30;51452;47.698;19.050;2023-06-14T13:05:56;23.62;45.01
64937;SHT30;51452;47.698;19.050;2023-06-14T13:08:21;23.63;43.98
64937;SHT30;51452;47.698;19.050;2023-06-14T13:10:47;23.58;46.67
64937;SHT30;51452;47.698;19.050;2023-06-14T13:13:12;23.48;45.24
64937;SHT30;51452;47.698;19.050;2023-06-14T13:15:38;23.51;43.07
64937;SHT30;51452;47.698;19.050;2023-06-14T13:18:04;23.56;42.66
64937;SHT30;51452;47.698;19.050;2023-06-14T13:20:31;23.75;44.98
64937;SHT30;51452;47.698;19.050;2023-06-14T13:22:57;23.87;45.58
64937;SHT30;51452;47.698;19.050;2023-06-14T13:25:22;23.77;43.63
64937;SHT30;51452;47.698;19.050;2023-06-14T13:27:48;23.67;46.89
64937;SHT30;51452;47.698;19.050;2023-06-14T13:30:14;23.61;45.69
64937;SHT30;51452;47.698;19.050;2023-06-14T13:32:39;23.61;42.23
64937;SHT30;51452;47.698;19.050;2023-06-14T13:35:05;23.49;43.70
64937;SHT30;51452;47.698;19.050;2023-06-14T13:37:31;23.58;46.08
64937;SHT30;51452;47.698;19.050;2023-06-14T13:39:56;23.61;44.92
64937;SHT30;51452;47.698;19.050;2023-06-14T13:42:22;23.69;44.34
64937;SHT30;51452;47.698;19.050;2023-06-14T13:44:47;23.65;44.48
64937;SHT30;51452;47.698;19.050;2023-06-14T13:47:13;23.77;42.77
64937;SHT30;51452;47.698;19.050;2023-06-14T13:49:38;23.95;42.43
64937;SHT30;51452;47.698;19.050;2023-06-14T13:52:04;24.07;42.51
64937;SHT30;51452;47.698;19.050;2023-06-14T13:54:29;24.10;39.59
64937;SHT30;51452;47.698;19.050;2023-06-14T13:56:55;24.07;40.88
64937;SHT30;51452;47.698;19.050;2023-06-14T13:59:20;24.12;39.16
64937;SHT30;51452;47.698;19.050;2023-06-14T14:01:45;24.12;40.10
64937;SHT30;51452;47.698;19.050;2023-06-14T14:04:11;24.10;42.57
64937;SHT30;51452;47.698;19.050;2023-06-14T14:06:36;23.99;45.59
64937;SHT30;51452;47.698;19.050;2023-06-14T14:09:02;24.17;44.81
64937;SHT30;51452;47.698;19.050;2023-06-14T14:11:28;24.13;43.96
64937;SHT30;51452;47.698;19.050;2023-06-14T14:13:54;24.05;44.22
64937;SHT30;51452;47.698;19.050;2023-06-14T14:16:19;24.10;46.52
64937;SHT30;51452;47.698;19.050;2023-06-14T14:18:45;23.97;45.80
64937;SHT30;51452;47.698;19.050;2023-06-14T14:21:11;23.93;43.90
64937;SHT30;51452;47.698;19.050;2023-06-14T14:23:36;24.00;44.76
64937;SHT30;51452;47.698;19.050;2023-06-14T14:26:02;23.90;41.01
64937;SHT30;51452;47.698;19.050;2023-06-14T14:28:30;23.85;43.33
64937;SHT30;51452;47.698;19.050;2023-06-14T14:30:56;23.82;40.85
64937;SHT30;51452;47.698;19.050;2023-06-14T14:33:21;23.72;42.69
64937;SHT30;51452;47.698;19.050;2023-06-14T14:35:47;23.77;43.42
64937;SHT30;51452;47.698;19.050;2023-06-14T14:38:13;23.82;42.91
64937;SHT30;51452;47.698;19.050;2023-06-14T14:40:40;23.80;43.76
64937;SHT30;51452;47.698;19.050;2023-06-14T14:43:06;23.82;44.28
64937;SHT30;51452;47.698;19.050;2023-06-14T14:45:32;23.79;42.79
64937;SHT30;51452;47.698;19.050;2023-06-14T14:47:57;23.72;43.90
64937;SHT30;51452;47.698;19.050;2023-06-14T14:50:23;23.75;47.87
64937;SHT30;51452;47.698;19.050;2023-06-14T14:52:48;23.79;46.62
64937;SHT30;51452;47.698;19.050;2023-06-14T14:55:14;23.58;41.79
64937;SHT30;51452;47.698;19.050;2023-06-14T14:57:39;23.58;41.76
64937;SHT30;51452;47.698;19.050;2023-06-14T15:00:05;23.45;42.98
64937;SHT30;51452;47.698;19.050;2023-06-14T15:02:31;23.41;44.17
64937;SHT30;51452;47.698;19.050;2023-06-14T15:04:57;23.35;42.01
64937;SHT30;51452;47.698;19.050;2023-06-14T15:07:30;23.32;44.31
64937;SHT30;51452;47.698;19.050;2023-06-14T15:10:00;23.27;43.68
64937;SHT30;51452;47.698;19.050;2023-06-14T15:12:25;23.25;44.36
64937;SHT30;51452;47.698;19.050;2023-06-14T15:14:51;23.11;43.54
64937;SHT30;51452;47.698;19.050;2023-06-14T15:17:18;23.15;45.10
64937;SHT30;51452;47.698;19.050;2023-06-14T15:19:44;23.11;43.54
64937;SHT30;51452;47.698;19.050;2023-06-14T15:22:10;23.03;43.75
64937;SHT30;51452;47.698;19.050;2023-06-14T15:24:35;23.11;43.58
64937;SHT30;51452;47.698;19.050;2023-06-14T15:27:01;23.08;44.81
64937;SHT30;51452;47.698;19.050;2023-06-14T15:29:28;23.10;46.47
64937;SHT30;51452;47.698;19.050;2023-06-14T15:31:53;23.08;43.90
64937;SHT30;51452;47.698;19.050;2023-06-14T15:34:20;23.10;45.89
64937;SHT30;51452;47.698;19.050;2023-06-14T15:36:45;23.07;43.20